createdAt,value
2022-10-14T00:01:20.769Z,11.10
2022-10-14T00:03:49.247Z,11.10
2022-10-14T00:06:22.672Z,11.10
2022-10-14T00:08:50.762Z,11.10
2022-10-14T00:11:22.020Z,11.10
2022-10-14T00:13:52.301Z,11.10
2022-10-14T00:16:22.534Z,11.10
2022-10-14T00:18:51.102Z,11.10
2022-10-14T00:21:19.552Z,11.20
2022-10-14T00:23:48.023Z,11.10
2022-10-14T00:26:18.393Z,11.20
2022-10-14T00:28:46.628Z,11.20
2022-10-14T00:31:16.997Z,11.20
2022-10-14T00:33:48.664Z,11.20
2022-10-14T00:36:18.880Z,11.20
2022-10-14T00:38:48.928Z,11.30
2022-10-14T00:41:19.394Z,11.20
2022-10-14T00:43:58.291Z,11.20
2022-10-14T00:46:29.593Z,11.20
2022-10-14T00:49:05.181Z,11.20
2022-10-14T00:51:33.700Z,11.20
2022-10-14T00:54:02.153Z,11.20
2022-10-14T00:56:31.979Z,11.30
2022-10-14T00:59:01.747Z,11.30
2022-10-14T01:01:31.588Z,11.30
2022-10-14T01:03:59.589Z,11.30
2022-10-14T01:06:44.056Z,11.30
2022-10-14T01:09:25.463Z,11.40
2022-10-14T01:12:27.045Z,11.40
2022-10-14T01:14:59.968Z,11.30
2022-10-14T01:17:40.016Z,11.30
2022-10-14T01:20:52.561Z,11.20
2022-10-14T01:24:05.078Z,11.30
2022-10-14T01:26:57.834Z,11.30
2022-10-14T01:29:55.532Z,11.30
2022-10-14T01:32:29.016Z,11.30
2022-10-14T01:35:03.521Z,11.40
2022-10-14T01:37:35.269Z,11.30
2022-10-14T01:40:13.324Z,11.40
2022-10-14T01:42:43.662Z,11.40
2022-10-14T01:45:19.992Z,11.40
2022-10-14T01:47:51.341Z,11.40
2022-10-14T01:50:22.205Z,11.40
2022-10-14T01:52:53.994Z,11.40
2022-10-14T01:55:26.544Z,11.40
2022-10-14T01:57:58.203Z,11.50
2022-10-14T02:00:26.761Z,11.50
2022-10-14T02:02:56.231Z,11.40
2022-10-14T02:05:30.804Z,11.40
2022-10-14T02:08:04.600Z,11.50
2022-10-14T02:10:42.764Z,11.50
2022-10-14T02:13:29.277Z,11.50
2022-10-14T02:16:02.555Z,11.50
2022-10-14T02:18:41.174Z,11.50
2022-10-14T02:21:17.125Z,11.50
2022-10-14T02:23:49.507Z,11.50
2022-10-14T02:26:18.371Z,11.50
2022-10-14T02:28:48.689Z,11.50
2022-10-14T02:31:19.421Z,11.50
2022-10-14T02:33:52.914Z,11.50
2022-10-14T02:36:24.171Z,11.60
2022-10-14T02:38:54.443Z,11.60
2022-10-14T02:41:26.022Z,11.60
2022-10-14T02:43:54.116Z,11.60
2022-10-14T02:46:22.898Z,11.60
2022-10-14T02:48:52.388Z,11.60
2022-10-14T02:51:20.704Z,11.60
2022-10-14T02:53:48.744Z,11.60
2022-10-14T02:56:18.646Z,11.60
2022-10-14T02:58:46.722Z,11.60
2022-10-14T03:01:14.749Z,11.60
2022-10-14T03:03:43.133Z,11.60
2022-10-14T03:06:12.646Z,11.70
2022-10-14T03:08:41.927Z,11.70
2022-10-14T03:11:10.451Z,11.70
2022-10-14T03:13:39.267Z,11.70
2022-10-14T03:16:07.938Z,11.70
2022-10-14T03:18:40.991Z,11.70
2022-10-14T03:21:21.259Z,11.70
2022-10-14T03:23:50.562Z,11.70
2022-10-14T03:26:23.876Z,11.60
2022-10-14T03:28:52.935Z,11.60
2022-10-14T03:31:24.968Z,11.50
2022-10-14T03:34:28.099Z,11.50
2022-10-14T03:37:07.799Z,11.40
2022-10-14T03:39:43.564Z,11.40
2022-10-14T03:42:12.632Z,11.40
2022-10-14T03:44:46.232Z,11.40
2022-10-14T03:47:18.861Z,11.40
2022-10-14T03:49:47.876Z,11.40
2022-10-14T03:52:46.589Z,11.40
2022-10-14T03:55:24.603Z,11.50
2022-10-14T03:57:53.622Z,11.50
2022-10-14T04:00:22.151Z,11.60
2022-10-14T04:03:00.489Z,11.70
2022-10-14T04:05:39.279Z,11.70
2022-10-14T04:08:14.305Z,11.70
2022-10-14T04:10:53.368Z,11.70
2022-10-14T04:13:21.984Z,11.80
2022-10-14T04:15:50.025Z,11.80
2022-10-14T04:18:28.586Z,11.80
2022-10-14T04:21:01.911Z,11.90
2022-10-14T04:23:31.964Z,11.90
2022-10-14T04:26:08.168Z,12.00
2022-10-14T04:28:38.697Z,12.00
2022-10-14T04:31:13.473Z,12.10
2022-10-14T04:33:59.639Z,12.10
2022-10-14T04:36:32.891Z,12.10
2022-10-14T04:39:04.696Z,12.10
2022-10-14T04:41:32.830Z,12.00
2022-10-14T04:44:02.494Z,12.10
2022-10-14T04:46:46.460Z,12.00
2022-10-14T04:49:16.583Z,12.10
2022-10-14T04:51:52.912Z,12.00
2022-10-14T04:54:31.821Z,12.00
2022-10-14T04:57:01.648Z,12.00
2022-10-14T04:59:31.574Z,12.00
2022-10-14T05:02:18.895Z,11.90
2022-10-14T05:04:54.288Z,11.90
2022-10-14T05:07:22.930Z,11.90
2022-10-14T05:09:58.475Z,11.80
2022-10-14T05:12:35.885Z,11.80
2022-10-14T05:15:06.299Z,11.80
2022-10-14T05:17:45.669Z,11.80
2022-10-14T05:20:17.288Z,11.70
2022-10-14T05:22:49.523Z,11.70
2022-10-14T05:25:19.582Z,11.70
2022-10-14T05:27:48.326Z,11.70
2022-10-14T05:30:17.662Z,11.70
2022-10-14T05:32:50.203Z,11.70
2022-10-14T05:35:39.845Z,11.70
2022-10-14T05:38:08.926Z,11.70
2022-10-14T05:40:43.646Z,11.70
2022-10-14T05:43:12.133Z,11.70
2022-10-14T05:45:44.452Z,11.70
2022-10-14T05:48:13.010Z,11.70
2022-10-14T05:50:42.722Z,11.70
2022-10-14T05:53:14.336Z,11.70
2022-10-14T05:55:47.682Z,11.80
2022-10-14T05:58:16.089Z,11.80
2022-10-14T06:00:46.005Z,11.80
2022-10-14T06:03:18.820Z,11.80
2022-10-14T06:05:47.055Z,11.80
2022-10-14T06:08:16.314Z,11.80
2022-10-14T06:10:47.349Z,11.80
2022-10-14T06:13:15.489Z,11.80
2022-10-14T06:15:46.545Z,11.80
2022-10-14T06:18:14.882Z,11.80
2022-10-14T06:20:42.949Z,11.80
2022-10-14T06:23:11.071Z,11.90
2022-10-14T06:25:39.106Z,11.90
2022-10-14T06:28:08.642Z,11.90
2022-10-14T06:30:36.786Z,11.90
2022-10-14T06:33:04.935Z,11.90
2022-10-14T06:35:33.053Z,11.90
2022-10-14T06:38:01.176Z,12.00
2022-10-14T06:40:29.193Z,12.00
2022-10-14T06:42:59.277Z,12.00
2022-10-14T06:45:28.683Z,12.00
2022-10-14T06:47:58.479Z,12.00
2022-10-14T06:50:26.498Z,12.00
2022-10-14T06:52:54.601Z,12.00
2022-10-14T06:55:22.602Z,12.00
2022-10-14T06:57:50.830Z,12.00
2022-10-14T07:00:19.370Z,12.10
2022-10-14T07:02:48.732Z,12.10
2022-10-14T07:05:17.027Z,12.10
2022-10-14T07:07:45.128Z,12.10
2022-10-14T07:10:13.302Z,12.10
2022-10-14T07:12:41.469Z,12.20
2022-10-14T07:15:10.757Z,12.20
2022-10-14T07:17:39.579Z,12.20
2022-10-14T07:20:10.173Z,12.20
2022-10-14T07:22:39.045Z,12.20
2022-10-14T07:25:08.397Z,12.30
2022-10-14T07:27:37.106Z,12.30
2022-10-14T07:30:06.554Z,12.30
2022-10-14T07:32:37.732Z,12.40
2022-10-14T07:35:06.625Z,12.40
2022-10-14T07:37:36.082Z,12.40
2022-10-14T07:40:06.472Z,12.40
2022-10-14T07:42:35.524Z,12.40
2022-10-14T07:45:03.900Z,12.50
2022-10-14T07:47:33.159Z,12.50
2022-10-14T07:50:01.463Z,12.50
2022-10-14T07:52:29.520Z,12.50
2022-10-14T07:54:58.888Z,12.50
2022-10-14T07:57:27.690Z,12.60
2022-10-14T07:59:55.833Z,12.60
2022-10-14T08:02:24.168Z,12.60
2022-10-14T08:05:04.097Z,12.60
2022-10-14T08:07:41.432Z,12.60
2022-10-14T08:10:10.883Z,12.70
2022-10-14T08:12:38.974Z,12.70
2022-10-14T08:15:07.912Z,12.80
2022-10-14T08:17:36.114Z,12.90
2022-10-14T08:20:04.696Z,13.00
2022-10-14T08:22:32.687Z,13.10
2022-10-14T08:25:00.654Z,13.20
2022-10-14T08:27:30.019Z,13.20
2022-10-14T08:29:58.058Z,13.20
2022-10-14T08:32:26.068Z,13.30
2022-10-14T08:34:55.920Z,13.40
2022-10-14T08:37:24.278Z,13.50
2022-10-14T08:39:52.306Z,13.70
2022-10-14T08:42:34.490Z,13.80
2022-10-14T08:45:08.839Z,14.00
2022-10-14T08:47:38.569Z,14.10
2022-10-14T08:50:18.359Z,14.10
2022-10-14T08:52:51.486Z,14.20
2022-10-14T08:55:27.971Z,14.30
2022-10-14T08:58:01.090Z,14.40
2022-10-14T09:00:31.680Z,14.40
2022-10-14T09:03:03.303Z,14.30
2022-10-14T09:05:31.650Z,14.30
2022-10-14T09:08:01.494Z,14.40
2022-10-14T09:10:33.969Z,14.40
2022-10-14T09:13:10.983Z,14.50
2022-10-14T09:15:43.214Z,14.60
2022-10-14T09:18:24.085Z,14.70
2022-10-14T09:20:53.777Z,14.80
2022-10-14T09:23:25.327Z,14.90
2022-10-14T09:25:57.723Z,15.00
2022-10-14T09:28:34.706Z,15.30
2022-10-14T09:31:02.914Z,15.40
2022-10-14T09:33:31.481Z,15.50
2022-10-14T09:38:32.766Z,15.90
2022-10-14T09:41:01.690Z,16.00
2022-10-14T09:43:31.116Z,16.10
2022-10-14T09:46:02.134Z,16.10
2022-10-14T09:48:39.065Z,16.00
2022-10-14T09:51:10.034Z,16.10
2022-10-14T09:53:42.205Z,16.10
2022-10-14T09:56:11.401Z,16.20
2022-10-14T09:58:47.474Z,16.30
2022-10-14T10:03:46.015Z,16.60
2022-10-14T10:06:19.050Z,16.70
2022-10-14T10:08:57.489Z,16.70
2022-10-14T10:11:30.757Z,16.60
2022-10-14T10:14:00.580Z,16.60
2022-10-14T10:16:31.351Z,16.60
2022-10-14T10:19:19.820Z,16.60
2022-10-14T10:21:48.133Z,16.70
2022-10-14T10:24:25.919Z,16.80
2022-10-14T10:26:56.861Z,16.80
2022-10-14T10:29:35.472Z,16.90
2022-10-14T10:32:12.989Z,17.00
2022-10-14T10:34:57.317Z,17.00
2022-10-14T10:37:58.470Z,17.10
2022-10-14T10:40:35.753Z,17.30
2022-10-14T10:43:38.798Z,17.40
2022-10-14T10:46:18.982Z,17.50
2022-10-14T10:48:50.173Z,17.40
2022-10-14T10:51:26.641Z,17.40
2022-10-14T10:54:07.658Z,17.40
2022-10-14T10:56:42.504Z,17.40
2022-10-14T10:59:36.517Z,17.50
2022-10-14T11:02:45.957Z,17.50
2022-10-14T11:05:22.085Z,17.40
2022-10-14T11:08:14.777Z,17.30
2022-10-14T11:11:12.666Z,17.20
2022-10-14T11:13:48.141Z,17.30
2022-10-14T11:16:26.557Z,17.50
2022-10-14T11:19:03.107Z,17.60
2022-10-14T11:21:39.765Z,17.70
2022-10-14T11:26:59.348Z,18.10
2022-10-14T11:30:03.362Z,18.30
2022-10-14T11:32:39.908Z,18.50
2022-10-14T11:35:22.934Z,18.50
2022-10-14T11:38:02.096Z,18.60
2022-10-14T11:40:38.730Z,18.70
2022-10-14T11:43:19.912Z,18.80
2022-10-14T11:45:54.893Z,18.80
2022-10-14T11:48:44.517Z,18.80
2022-10-14T11:51:20.324Z,18.70
2022-10-14T11:53:59.513Z,18.70
2022-10-14T11:56:35.699Z,18.70
2022-10-14T11:59:10.521Z,18.80
2022-10-14T12:01:44.920Z,18.90
2022-10-14T12:04:25.376Z,19.10
2022-10-14T12:07:02.097Z,19.20
2022-10-14T12:09:39.133Z,19.20
2022-10-14T12:12:10.098Z,19.20
2022-10-14T12:14:40.969Z,19.30
2022-10-14T12:17:20.638Z,19.30
2022-10-14T12:19:49.727Z,19.40
2022-10-14T12:22:23.235Z,19.50
2022-10-14T12:24:54.614Z,19.70
2022-10-14T12:27:25.313Z,19.80
2022-10-14T12:29:55.190Z,20.00
2022-10-14T12:32:25.997Z,20.00
2022-10-14T12:34:55.286Z,20.00
2022-10-14T12:40:28.830Z,20.00
2022-10-14T12:43:03.534Z,20.00
2022-10-14T12:45:34.670Z,19.90
2022-10-14T12:48:12.912Z,19.90
2022-10-14T12:50:42.131Z,19.90
2022-10-14T12:53:22.588Z,19.90
2022-10-14T12:55:53.411Z,19.80
2022-10-14T12:58:29.424Z,19.90
2022-10-14T13:01:01.638Z,19.80
2022-10-14T13:03:34.017Z,19.90
2022-10-14T13:06:42.318Z,19.80
2022-10-14T13:09:36.427Z,19.80
2022-10-14T13:12:44.015Z,19.70
2022-10-14T13:15:34.150Z,19.80
2022-10-14T13:18:35.908Z,19.80
2022-10-14T13:21:05.708Z,19.90
2022-10-14T13:23:40.483Z,19.90
2022-10-14T13:26:23.070Z,20.00
2022-10-14T13:29:02.966Z,20.10
2022-10-14T13:31:38.562Z,20.30
2022-10-14T13:34:18.995Z,20.40
2022-10-14T13:37:01.897Z,20.40
2022-10-14T13:39:33.454Z,20.40
2022-10-14T13:42:03.759Z,20.40
2022-10-14T13:44:31.906Z,20.40
2022-10-14T13:47:04.694Z,20.20
2022-10-14T13:49:37.655Z,20.10
2022-10-14T13:52:08.130Z,20.00
2022-10-14T13:54:36.475Z,20.00
2022-10-14T13:57:38.286Z,20.10
2022-10-14T14:02:54.992Z,20.00
2022-10-14T14:05:26.662Z,20.10
2022-10-14T14:11:15.040Z,20.10
2022-10-14T14:13:55.818Z,20.00
2022-10-14T14:16:28.703Z,19.80
2022-10-14T14:19:07.969Z,19.70
2022-10-14T14:21:36.872Z,19.50
2022-10-14T14:24:16.361Z,19.40
2022-10-14T14:26:54.925Z,19.20
2022-10-14T14:29:29.053Z,19.00
2022-10-14T14:32:07.974Z,18.90
2022-10-14T14:34:39.840Z,18.70
2022-10-14T14:40:08.196Z,18.30
2022-10-14T14:42:39.632Z,18.30
2022-10-14T14:45:16.769Z,18.20
2022-10-14T14:47:45.719Z,18.20
2022-10-14T14:50:29.901Z,18.20
2022-10-14T14:53:02.983Z,18.10
2022-10-14T14:55:43.104Z,18.00
2022-10-14T14:58:28.251Z,17.90
2022-10-14T15:00:58.069Z,17.80
2022-10-14T15:03:28.069Z,17.80
2022-10-14T15:06:00.122Z,17.80
2022-10-14T15:08:34.809Z,17.70
2022-10-14T15:11:03.595Z,17.70
2022-10-14T15:13:44.534Z,17.70
2022-10-14T15:16:13.951Z,17.70
2022-10-14T15:18:43.594Z,17.70
2022-10-14T15:21:19.769Z,17.60
2022-10-14T15:24:03.185Z,17.60
2022-10-14T15:26:34.619Z,17.60
2022-10-14T15:29:14.571Z,17.60
2022-10-14T15:31:46.322Z,17.60
2022-10-14T15:34:20.323Z,17.50
2022-10-14T15:36:52.159Z,17.40
2022-10-14T15:39:20.560Z,17.10
2022-10-14T15:41:48.829Z,17.00
2022-10-14T15:44:16.917Z,17.00
2022-10-14T15:47:04.528Z,16.80
2022-10-14T15:49:37.358Z,16.70
2022-10-14T15:52:05.522Z,16.50
2022-10-14T15:54:33.580Z,16.40
2022-10-14T15:57:01.678Z,16.30
2022-10-14T15:59:29.653Z,16.20
2022-10-14T16:01:59.386Z,16.10
2022-10-14T16:04:28.038Z,16.00
2022-10-14T16:06:57.659Z,15.90
2022-10-14T16:09:27.612Z,15.80
2022-10-14T16:11:58.320Z,15.70
2022-10-14T16:14:27.062Z,15.60
2022-10-14T16:16:55.826Z,15.50
2022-10-14T16:19:26.721Z,15.40
2022-10-14T16:21:54.837Z,15.40
2022-10-14T16:24:25.466Z,15.20
2022-10-14T16:26:54.758Z,15.20
2022-10-14T16:29:22.840Z,15.10
2022-10-14T16:31:52.395Z,15.00
2022-10-14T16:34:22.346Z,14.90
2022-10-14T16:36:52.616Z,14.90
2022-10-14T16:39:21.052Z,14.80
2022-10-14T16:41:49.722Z,14.80
2022-10-14T16:44:27.524Z,14.80
2022-10-14T16:47:15.003Z,14.70
2022-10-14T16:49:45.072Z,14.70
2022-10-14T16:52:18.056Z,14.70
2022-10-14T16:54:46.212Z,14.70
2022-10-14T16:57:14.475Z,14.70
2022-10-14T16:59:42.703Z,14.60
2022-10-14T17:02:15.257Z,14.60
2022-10-14T17:04:46.290Z,14.60
2022-10-14T17:07:16.691Z,14.60
2022-10-14T17:09:46.108Z,14.60
2022-10-14T17:12:14.469Z,14.60
2022-10-14T17:14:42.953Z,14.60
2022-10-14T17:17:12.375Z,14.60
2022-10-14T17:19:40.377Z,14.60
2022-10-14T17:22:08.463Z,14.50
2022-10-14T17:24:36.451Z,14.50
2022-10-14T17:27:11.709Z,14.50
2022-10-14T17:29:40.053Z,14.50
2022-10-14T17:32:08.355Z,14.40
2022-10-14T17:34:36.388Z,14.40
2022-10-14T17:39:41.234Z,14.40
2022-10-14T17:42:09.222Z,14.40
2022-10-14T17:44:43.414Z,14.40
2022-10-14T17:47:12.157Z,14.40
2022-10-14T17:49:40.447Z,14.40
2022-10-14T17:52:08.442Z,14.30
2022-10-14T17:54:36.450Z,14.30
2022-10-14T17:57:04.611Z,14.30
2022-10-14T17:59:32.788Z,14.30
2022-10-14T18:02:26.692Z,14.30
2022-10-14T18:04:55.019Z,14.30
2022-10-14T18:07:23.316Z,14.30
2022-10-14T18:09:51.636Z,14.30
2022-10-14T18:12:20.199Z,14.30
2022-10-14T18:14:48.566Z,14.30
2022-10-14T18:17:18.166Z,14.30
2022-10-14T18:19:51.218Z,14.30
2022-10-14T18:22:20.217Z,14.30
2022-10-14T18:24:48.343Z,14.20
2022-10-14T18:27:16.410Z,14.20
2022-10-14T18:29:44.383Z,14.20
2022-10-14T18:32:12.439Z,14.20
2022-10-14T18:34:41.786Z,14.20
2022-10-14T18:37:09.938Z,14.20
2022-10-14T18:39:37.965Z,14.20
2022-10-14T18:42:05.987Z,14.20
2022-10-14T18:44:33.999Z,14.20
2022-10-14T18:47:01.987Z,14.20
2022-10-14T18:49:30.120Z,14.20
2022-10-14T18:51:59.492Z,14.20
2022-10-14T18:54:28.126Z,14.20
2022-10-14T18:56:56.173Z,14.20
2022-10-14T18:59:24.932Z,14.20
2022-10-14T19:01:54.083Z,14.20
2022-10-14T19:04:24.738Z,14.20
2022-10-14T19:06:52.723Z,14.20
2022-10-14T19:09:28.806Z,14.20
2022-10-14T19:11:58.896Z,14.20
2022-10-14T19:14:28.566Z,14.20
2022-10-14T19:16:56.757Z,14.20
2022-10-14T19:19:25.427Z,14.20
2022-10-14T19:21:54.414Z,14.20
2022-10-14T19:24:24.156Z,14.20
2022-10-14T19:26:54.217Z,14.20
2022-10-14T19:29:22.505Z,14.20
2022-10-14T19:31:51.613Z,14.20
2022-10-14T19:34:19.680Z,14.20
2022-10-14T19:36:47.675Z,14.20
2022-10-14T19:39:18.835Z,14.10
2022-10-14T19:41:48.431Z,14.20
2022-10-14T19:44:17.799Z,14.20
2022-10-14T19:46:46.662Z,14.20
2022-10-14T19:49:16.621Z,14.20
2022-10-14T19:51:45.113Z,14.20
2022-10-14T19:54:13.900Z,14.20
2022-10-14T19:56:42.373Z,14.20
2022-10-14T19:59:13.435Z,14.20
2022-10-14T20:01:41.940Z,14.10
2022-10-14T20:04:10.189Z,14.20
2022-10-14T20:06:40.111Z,14.20
2022-10-14T20:09:09.628Z,14.20
2022-10-14T20:11:37.735Z,14.20
2022-10-14T20:14:05.826Z,14.20
2022-10-14T20:16:35.680Z,14.20
2022-10-14T20:19:03.828Z,14.20
2022-10-14T20:21:32.007Z,14.20
2022-10-14T20:24:00.495Z,14.20
2022-10-14T20:26:29.145Z,14.20
2022-10-14T20:28:57.221Z,14.20
2022-10-14T20:31:26.275Z,14.20
2022-10-14T20:33:57.523Z,14.20
2022-10-14T20:36:25.667Z,14.20
2022-10-14T20:38:53.740Z,14.10
2022-10-14T20:41:23.530Z,14.10
2022-10-14T20:43:52.724Z,14.10
2022-10-14T20:46:21.918Z,14.10
2022-10-14T20:48:53.770Z,14.10
2022-10-14T20:51:23.683Z,14.10
2022-10-14T20:53:58.564Z,14.10
2022-10-14T20:56:31.257Z,14.10
2022-10-14T20:59:00.781Z,14.10
2022-10-14T21:01:30.606Z,14.10
2022-10-14T21:04:01.607Z,14.00
2022-10-14T21:06:31.400Z,14.00
2022-10-14T21:09:00.010Z,14.00
2022-10-14T21:11:28.895Z,14.00
2022-10-14T21:13:59.115Z,14.00
2022-10-14T21:16:28.704Z,14.00
2022-10-14T21:18:58.633Z,14.00
2022-10-14T21:21:28.402Z,14.00
2022-10-14T21:23:58.125Z,14.00
2022-10-14T21:26:27.068Z,14.00
2022-10-14T21:28:55.125Z,14.00
2022-10-14T21:31:23.765Z,14.00
2022-10-14T21:33:59.912Z,14.00
2022-10-14T21:36:30.922Z,14.00
2022-10-14T21:39:01.173Z,13.90
2022-10-14T21:41:29.593Z,13.90
2022-10-14T21:43:59.410Z,14.00
2022-10-14T21:46:28.462Z,13.90
2022-10-14T21:48:58.765Z,13.90
2022-10-14T21:51:30.351Z,13.90
2022-10-14T21:54:00.270Z,13.80
2022-10-14T21:56:30.031Z,13.80
2022-10-14T21:58:58.639Z,13.80
2022-10-14T22:01:28.490Z,13.80
2022-10-14T22:03:58.047Z,13.80
2022-10-14T22:06:27.836Z,13.80
2022-10-14T22:08:57.503Z,13.80
2022-10-14T22:11:29.556Z,13.80
2022-10-14T22:13:59.256Z,13.80
2022-10-14T22:16:28.983Z,13.80
2022-10-14T22:18:59.620Z,13.80
2022-10-14T22:21:29.496Z,13.80
2022-10-14T22:23:58.616Z,13.80
2022-10-14T22:26:29.839Z,13.70
2022-10-14T22:29:00.071Z,13.70
2022-10-14T22:31:29.783Z,13.70
2022-10-14T22:33:58.964Z,13.70
2022-10-14T22:36:29.797Z,13.70
2022-10-14T22:38:59.509Z,13.70
2022-10-14T22:41:34.957Z,13.70
2022-10-14T22:44:04.284Z,13.70
2022-10-14T22:46:34.482Z,13.60
2022-10-14T22:49:03.413Z,13.70
2022-10-14T22:51:32.953Z,13.60
2022-10-14T22:54:02.154Z,13.60
2022-10-14T22:56:32.307Z,13.60
2022-10-14T22:59:02.061Z,13.60
2022-10-14T23:01:30.615Z,13.60
2022-10-14T23:04:00.425Z,13.60
2022-10-14T23:06:31.229Z,13.60
2022-10-14T23:09:00.940Z,13.60
2022-10-14T23:11:32.071Z,13.60
2022-10-14T23:14:02.880Z,13.60
2022-10-14T23:16:34.558Z,13.60
2022-10-14T23:19:02.677Z,13.60
2022-10-14T23:21:32.390Z,13.60
2022-10-14T23:24:02.139Z,13.60
2022-10-14T23:26:34.549Z,13.50
2022-10-14T23:29:05.022Z,13.70
2022-10-14T23:31:35.603Z,13.60
2022-10-14T23:34:06.424Z,13.60
2022-10-14T23:36:34.846Z,13.70
2022-10-14T23:39:02.851Z,13.60
2022-10-14T23:41:32.279Z,13.60
2022-10-14T23:44:00.343Z,13.50
2022-10-14T23:46:28.477Z,13.50
2022-10-14T23:49:06.719Z,13.50
2022-10-14T23:51:42.378Z,13.50
2022-10-14T23:54:10.453Z,13.50
2022-10-14T23:56:40.036Z,13.40
2022-10-14T23:59:08.070Z,13.50
